Thursday, November 15, 2018, 8:41 PM EST
Back to Local

KPQI, Presque Isle

Location: Presque Isle, ME, United States Lat: 46.683
Local Time: 8:41 PM EST ( 1:41 GMT) Lon: -68.05
Time Zone: US/Eastern Elev: 534 ft

Show me the last for .
Show Decoded

2018-11-15 19:56 METAR KPQI 160056Z AUTO 00000KT 10SM CLR M13/M14 A3040 RMK AO2 SLP344 T11281144
                 FZRANO =
2018-11-15 18:56 METAR KPQI 152356Z AUTO 27003KT 10SM CLR M12/M14 A3042 RMK AO2 SLP347 T11171139
                 11044 21122 56012 FZRANO =
2018-11-15 17:56 METAR KPQI 152256Z AUTO 00000KT 10SM CLR M12/M14 A3042 RMK AO2 SLP349 T11171144
                 FZRANO =
2018-11-15 16:56 METAR KPQI 152156Z AUTO 00000KT 10SM CLR M09/M14 A3044 RMK AO2 SLP356 T10941139
                 FZRANO =
2018-11-15 15:56 METAR KPQI 152056Z AUTO 00000KT 10SM CLR M07/M14 A3045 RMK AO2 SLP359 T10721144
                 55003 FZRANO =
2018-11-15 14:56 METAR KPQI 151956Z AUTO 25006KT 10SM CLR M06/M14 A3045 RMK AO2 SLP358 T10561139
                 FZRANO =
2018-11-15 13:56 METAR KPQI 151856Z AUTO 28007KT 10SM CLR M04/M13 A3044 RMK AO2 SLP356 T10441133
                 FZRANO =
2018-11-15 12:56 METAR KPQI 151756Z AUTO 26009KT 10SM CLR M04/M13 A3047 RMK AO2 SLP364 T10441133
                 11039 21139 55011 FZRANO =
2018-11-15 11:56 METAR KPQI 151656Z AUTO 27009KT 10SM CLR M04/M13 A3046 RMK AO2 SLP362 T10441133
                 FZRANO =
2018-11-15 10:56 METAR KPQI 151556Z AUTO 27005KT 10SM CLR M06/M14 A3047 RMK AO2 SLP366 T10611139
                 FZRANO =
2018-11-15 09:56 METAR KPQI 151456Z AUTO 28006KT 10SM CLR M08/M14 A3050 RMK AO2 SLP374 T10831144
                 58012 FZRANO =
2018-11-15 08:56 METAR KPQI 151356Z AUTO 28007KT 10SM CLR M11/M16 A3051 RMK AO2 SLP380 T11061161
                 FZRANO =
2018-11-15 07:56 METAR KPQI 151256Z AUTO 21005KT 10SM CLR M11/M16 A3052 RMK AO2 SLP385 T11111161
                 FZRANO =
2018-11-15 06:56 METAR KPQI 151156Z AUTO 25004KT 10SM CLR M14/M17 A3053 RMK AO2 SLP389 T11391167
                 11106 21150 53027 FZRANO =
2018-11-15 05:56 METAR KPQI 151056Z AUTO 19005KT 10SM CLR M14/M17 A3050 RMK AO2 SLP379 T11441172
                 FZRANO =
2018-11-15 04:56 METAR KPQI 150956Z AUTO 29010G17KT 10SM CLR M13/M16 A3047 RMK AO2 SLP367
                 T11281161 FZRANO =
2018-11-15 03:56 METAR KPQI 150856Z AUTO 30013G19KT 10SM CLR M12/M16 A3045 RMK AO2 SLP360
                 T11221156 53028 FZRANO =
2018-11-15 02:56 METAR KPQI 150756Z AUTO 28011KT 10SM CLR M12/M16 A3042 RMK AO2 SLP348 T11171156
                 FZRANO =
2018-11-15 01:56 METAR KPQI 150656Z AUTO 29011G17KT 10SM CLR M11/M16 A3040 RMK AO2 SLP340
                 T11111156 FZRANO =
2018-11-15 00:56 METAR KPQI 150556Z AUTO 28012G19KT 10SM CLR M11/M15 A3037 RMK AO2 SLP331 60000
                 T11111150 11100 21111 51041 FZRANO =
2018-11-14 23:56 METAR KPQI 150456Z AUTO 27007KT 10SM CLR M11/M15 A3034 RMK AO2 SLP320 T11111150
                 400001117 FZRANO =
2018-11-14 22:56 METAR KPQI 150356Z AUTO 28010KT 10SM CLR M11/M15 A3029 RMK AO2 SLP305 T11061150
                 FZRANO =
2018-11-14 21:56 METAR KPQI 150256Z AUTO 31007G15KT 10SM CLR M11/M14 A3025 RMK AO2 SLP289 60000
                 T11061144 51022 FZRANO =
2018-11-14 20:56 METAR KPQI 150156Z AUTO 29018G27KT 10SM CLR M11/M14 A3023 RMK AO2 PK WND
                 28029/0111 SNB13E23 SLP286 P0000 T11061144 FZRANO =

Support USWX by starting your Amazon purchase here.